Hopkins, MN (55343)

2:31 AM CDT on July 24, 2016 (GMT -0500)
Parkridge | | Change Station

Elev 932 ft 44.93 °N, 93.40 °W | Updated 3 seconds ago

Overcast
Overcast
73.9 °F
Feels Like 70 °F
N
0.0
Wind Variable Wind from North
Gusts 0.0 mph

Today
High -- | Low -- °F
--% Chance of Precip.
Yesterday
High -- | Low -- °F
Precip. -- in
Pressure 29.75 in
Visibility 7.0 miles
Clouds Overcast 600 ft
Heat Index 70 °F
Dew Point 73 °F
Humidity 97%
Rainfall 0.00 in
Snow Depth Not available.
5:51 AM 8:48 PM
Waning Gibbous, 78% visible
METAR KFCM 240653Z AUTO 20005KT 7SM OVC006 24/23 A2976 RMK AO2 LTG DSNT W AND NW SLP072 T02440228
Pressure 29.75 in
Visibility 7.0 miles
Clouds Overcast 600 ft
Heat Index 70 °F
Dew Point 73 °F
Humidity 97%
Rainfall 0.00 in
Snow Depth Not available.
5:51 AM 8:48 PM
Waning Gibbous, 78% visible
METAR KFCM 240653Z AUTO 20005KT 7SM OVC006 24/23 A2976 RMK AO2 LTG DSNT W AND NW SLP072 T02440228

10-Day Weather Forecast

Almanac

Astronomy

Jul. 24, 2016 Rise Set
Actual Time
Civil Twilight
Nautical Twilight
Astronomical Twilight
Moon
Length of Visible Light
Length of Day
Tomorrow will be .
, % of the Moon is Illuminated

Today's Extremes

State Highs State Lows

Community

WunderPhotos

Upload Photos

1,927,037 photos uploaded!

WunderBlog® & News

Nearby

Air Quality

  Air Quality AQ Index Pollutant
Not available.

Snow Depth

Station Depth Elevation

Earthquake Activity

City Distance Mag. Time & Date
Minimum magnitude displayed is 2.5.

Coastal Water Temperatures

Place Temperature

Stations

Nearby Weather Stations

Station Location Temp. Windchill Dew Point Humidity Wind Precip. Elev Updated Type
                   

Watches & Warnings

There are currently no watches in effect.